createdAt,value
2022-10-18T00:01:13.179Z,79.19
2022-10-18T00:03:14.510Z,79.21
2022-10-18T00:05:15.800Z,79.32
2022-10-18T00:07:17.089Z,79.29
2022-10-18T00:09:18.357Z,79.83
2022-10-18T00:11:19.647Z,79.47
2022-10-18T00:13:20.905Z,79.86
2022-10-18T00:15:22.162Z,79.47
2022-10-18T00:17:23.478Z,79.49
2022-10-18T00:19:27.182Z,79.61
2022-10-18T00:21:30.551Z,79.90
2022-10-18T00:23:31.843Z,80.35
2022-10-18T00:25:33.129Z,79.63
2022-10-18T00:27:34.393Z,79.72
2022-10-18T00:29:35.703Z,80.14
2022-10-18T00:31:37.048Z,79.72
2022-10-18T00:33:38.346Z,80.03
2022-10-18T00:35:39.611Z,79.85
2022-10-18T00:37:40.889Z,80.27
2022-10-18T00:39:42.285Z,80.10
2022-10-18T00:41:43.642Z,80.30
2022-10-18T00:43:44.907Z,80.58
2022-10-18T00:45:46.386Z,80.47
2022-10-18T00:47:47.692Z,80.61
2022-10-18T00:49:49.047Z,80.97
2022-10-18T00:51:50.325Z,80.96
2022-10-18T00:53:51.823Z,81.14
2022-10-18T00:55:53.099Z,80.95
2022-10-18T01:00:00.639Z,81.11
2022-10-18T01:02:01.954Z,81.04
2022-10-18T01:04:03.268Z,80.55
2022-10-18T01:06:04.572Z,80.61
2022-10-18T01:08:05.888Z,80.64
2022-10-18T01:10:07.160Z,80.69
2022-10-18T01:12:08.479Z,81.09
2022-10-18T01:14:09.763Z,81.13
2022-10-18T01:16:11.055Z,80.60
2022-10-18T01:18:12.326Z,80.58
2022-10-18T01:20:13.606Z,80.67
2022-10-18T01:22:14.882Z,80.78
2022-10-18T01:24:16.183Z,80.35
2022-10-18T01:26:17.513Z,80.26
2022-10-18T01:28:18.782Z,80.61
2022-10-18T01:30:20.057Z,80.15
2022-10-18T01:32:21.385Z,80.55
2022-10-18T01:34:22.652Z,80.12
2022-10-18T01:36:23.931Z,80.05
2022-10-18T01:38:25.209Z,80.24
2022-10-18T01:40:26.522Z,80.18
2022-10-18T01:42:27.858Z,80.26
2022-10-18T01:44:29.147Z,80.54
2022-10-18T01:46:30.473Z,80.75
2022-10-18T01:48:31.786Z,80.55
2022-10-18T01:50:33.103Z,80.82
2022-10-18T01:52:34.574Z,80.48
2022-10-18T01:54:35.946Z,80.50
2022-10-18T01:56:37.227Z,80.75
2022-10-18T01:58:38.547Z,80.63
2022-10-18T02:00:39.829Z,80.96
2022-10-18T02:02:41.093Z,80.72
2022-10-18T02:04:42.385Z,80.48
2022-10-18T02:06:43.674Z,80.39
2022-10-18T02:08:44.946Z,80.67
2022-10-18T02:10:46.279Z,80.28
2022-10-18T02:12:47.551Z,79.78
2022-10-18T02:14:48.859Z,79.56
2022-10-18T02:16:50.135Z,79.43
2022-10-18T02:18:51.659Z,79.10
2022-10-18T02:20:52.943Z,79.15
2022-10-18T02:22:54.782Z,78.93
2022-10-18T02:24:56.083Z,78.92
2022-10-18T02:26:57.366Z,78.88
2022-10-18T02:28:58.674Z,79.20
2022-10-18T02:30:59.926Z,78.75
2022-10-18T02:33:01.210Z,78.90
2022-10-18T02:35:02.515Z,79.04
2022-10-18T02:37:03.826Z,79.19
2022-10-18T02:39:05.098Z,79.01
2022-10-18T02:41:06.423Z,79.02
2022-10-18T02:43:07.698Z,78.79
2022-10-18T02:45:08.987Z,78.58
2022-10-18T02:47:10.630Z,78.91
2022-10-18T02:49:12.686Z,78.99
2022-10-18T02:51:14.235Z,78.43
2022-10-18T02:53:15.521Z,78.06
2022-10-18T02:55:17.741Z,78.05
2022-10-18T02:57:19.086Z,78.48
2022-10-18T02:59:20.682Z,78.25
2022-10-18T03:01:22.031Z,78.64
2022-10-18T03:03:23.335Z,78.59
2022-10-18T03:05:24.645Z,78.93
2022-10-18T03:07:25.930Z,78.99
2022-10-18T03:09:27.199Z,78.46
2022-10-18T03:11:28.498Z,78.53
2022-10-18T03:15:36.459Z,78.49
2022-10-18T03:17:37.825Z,78.73
2022-10-18T03:19:39.151Z,78.31
2022-10-18T03:21:40.441Z,78.87
2022-10-18T03:23:42.292Z,78.71
2022-10-18T03:25:45.701Z,78.82
2022-10-18T03:27:47.792Z,79.16
2022-10-18T03:29:49.077Z,78.73
2022-10-18T03:31:50.360Z,78.35
2022-10-18T03:33:51.647Z,78.49
2022-10-18T03:35:52.915Z,78.52
2022-10-18T03:37:54.198Z,78.51
2022-10-18T03:39:55.457Z,78.32
2022-10-18T03:41:56.780Z,78.30
2022-10-18T03:43:58.052Z,77.85
2022-10-18T03:45:59.358Z,78.00
2022-10-18T03:48:00.618Z,77.90
2022-10-18T03:50:01.902Z,77.82
2022-10-18T03:52:03.324Z,78.07
2022-10-18T03:54:04.617Z,78.05
2022-10-18T03:56:05.926Z,77.82
2022-10-18T03:58:07.242Z,77.84
2022-10-18T04:00:08.517Z,77.93
2022-10-18T04:02:09.782Z,77.90
2022-10-18T04:04:11.151Z,77.77
2022-10-18T04:06:13.196Z,78.18
2022-10-18T04:08:14.460Z,78.14
2022-10-18T04:10:15.784Z,78.16
2022-10-18T04:12:17.236Z,78.71
2022-10-18T04:14:18.562Z,78.21
2022-10-18T04:16:19.826Z,78.62
2022-10-18T04:18:21.103Z,79.20
2022-10-18T04:20:22.374Z,78.87
2022-10-18T04:22:23.698Z,78.96
2022-10-18T04:24:24.966Z,79.00
2022-10-18T04:26:26.244Z,79.25
2022-10-18T04:28:27.589Z,78.88
2022-10-18T04:30:28.878Z,78.91
2022-10-18T04:32:30.221Z,78.52
2022-10-18T04:34:31.649Z,78.51
2022-10-18T04:36:33.027Z,78.27
2022-10-18T04:38:34.360Z,78.23
2022-10-18T04:40:35.653Z,77.90
2022-10-18T04:42:36.926Z,77.89
2022-10-18T04:44:38.797Z,77.93
2022-10-18T04:46:40.075Z,77.75
2022-10-18T04:48:41.359Z,77.93
2022-10-18T04:50:42.634Z,77.62
2022-10-18T04:52:43.955Z,77.54
2022-10-18T04:54:45.262Z,77.93
2022-10-18T04:56:46.801Z,77.58
2022-10-18T04:58:48.125Z,77.93
2022-10-18T05:00:49.418Z,77.82
2022-10-18T05:02:50.694Z,77.90
2022-10-18T05:04:52.138Z,78.12
2022-10-18T05:06:53.410Z,78.59
2022-10-18T05:08:54.751Z,78.75
2022-10-18T05:10:56.165Z,78.72
2022-10-18T05:12:57.495Z,79.21
2022-10-18T05:14:58.785Z,78.98
2022-10-18T05:17:00.102Z,78.72
2022-10-18T05:19:01.387Z,78.23
2022-10-18T05:21:02.645Z,78.79
2022-10-18T05:23:03.972Z,78.10
2022-10-18T05:25:05.228Z,78.40
2022-10-18T05:27:06.531Z,78.59
2022-10-18T05:29:07.901Z,78.51
2022-10-18T05:31:09.266Z,78.41
2022-10-18T05:33:10.579Z,78.20
2022-10-18T05:35:12.079Z,78.04
2022-10-18T05:37:13.357Z,78.08
2022-10-18T05:39:14.679Z,78.44
2022-10-18T05:41:15.982Z,78.20
2022-10-18T05:43:20.150Z,78.57
2022-10-18T05:45:21.420Z,78.77
2022-10-18T05:47:22.809Z,79.17
2022-10-18T05:49:24.194Z,79.68
2022-10-18T05:51:25.507Z,79.09
2022-10-18T05:53:42.185Z,78.58
2022-10-18T05:55:43.514Z,69.95
2022-10-18T05:57:44.787Z,68.65
2022-10-18T05:59:46.238Z,67.75
2022-10-18T06:01:47.495Z,69.60
2022-10-18T06:03:48.784Z,71.30
2022-10-18T06:05:50.120Z,70.89
2022-10-18T06:07:51.432Z,70.97
2022-10-18T06:09:52.758Z,71.71
2022-10-18T06:11:54.092Z,72.43
2022-10-18T06:13:55.483Z,73.46
2022-10-18T06:15:57.532Z,73.46
2022-10-18T06:17:59.196Z,73.99
2022-10-18T06:20:00.514Z,74.27
2022-10-18T06:22:02.000Z,74.48
2022-10-18T06:24:03.399Z,75.18
2022-10-18T06:26:04.687Z,75.67
2022-10-18T06:28:07.929Z,76.03
2022-10-18T06:30:11.526Z,76.00
2022-10-18T06:32:12.808Z,76.16
2022-10-18T06:34:14.110Z,76.32
2022-10-18T06:36:15.437Z,76.17
2022-10-18T06:38:16.716Z,76.57
2022-10-18T06:40:18.005Z,76.21
2022-10-18T06:42:21.901Z,76.83
2022-10-18T06:44:24.048Z,76.81
2022-10-18T06:46:25.322Z,77.02
2022-10-18T06:48:26.636Z,76.87
2022-10-18T06:50:27.944Z,77.38
2022-10-18T06:52:29.608Z,77.23
2022-10-18T06:54:30.990Z,77.41
2022-10-18T06:56:32.261Z,77.27
2022-10-18T06:58:33.625Z,77.62
2022-10-18T07:00:34.899Z,77.63
2022-10-18T07:02:37.481Z,77.97
2022-10-18T07:04:38.803Z,77.61
2022-10-18T07:06:40.114Z,77.53
2022-10-18T07:08:41.423Z,77.82
2022-10-18T07:10:42.735Z,77.81
2022-10-18T07:12:44.054Z,77.81
2022-10-18T07:14:46.060Z,77.77
2022-10-18T07:16:47.472Z,78.12
2022-10-18T07:18:49.625Z,77.89
2022-10-18T07:20:50.910Z,77.95
2022-10-18T07:22:52.215Z,78.31
2022-10-18T07:24:53.477Z,77.76
2022-10-18T07:26:54.806Z,78.19
2022-10-18T07:29:00.716Z,77.82
2022-10-18T07:31:05.170Z,78.28
2022-10-18T07:33:07.971Z,77.99
2022-10-18T07:35:09.293Z,78.28
2022-10-18T07:37:10.573Z,77.86
2022-10-18T07:39:11.969Z,77.64
2022-10-18T07:41:13.290Z,77.81
2022-10-18T07:43:14.555Z,77.77
2022-10-18T07:45:15.826Z,77.43
2022-10-18T07:47:17.134Z,77.65
2022-10-18T07:49:18.410Z,77.66
2022-10-18T07:51:19.734Z,77.43
2022-10-18T07:53:21.091Z,77.52
2022-10-18T07:55:22.387Z,78.19
2022-10-18T07:57:23.692Z,77.32
2022-10-18T07:59:25.235Z,77.78
2022-10-18T08:01:26.589Z,77.43
2022-10-18T08:03:27.870Z,77.74
2022-10-18T08:05:29.248Z,77.69
2022-10-18T08:07:31.058Z,77.54
2022-10-18T08:09:32.587Z,77.66
2022-10-18T08:11:34.017Z,77.88
2022-10-18T08:13:35.282Z,77.68
2022-10-18T08:15:36.558Z,77.80
2022-10-18T08:17:38.016Z,77.59
2022-10-18T08:19:44.645Z,77.57
2022-10-18T08:21:54.284Z,77.55
2022-10-18T08:23:55.618Z,77.75
2022-10-18T08:25:56.908Z,78.04
2022-10-18T08:27:58.527Z,77.97
2022-10-18T08:30:01.921Z,77.83
2022-10-18T08:32:03.414Z,77.74
2022-10-18T08:34:04.718Z,78.06
2022-10-18T08:36:06.073Z,77.71
2022-10-18T08:38:16.397Z,78.21
2022-10-18T08:40:20.383Z,77.79
2022-10-18T08:42:21.674Z,78.07
2022-10-18T08:44:23.010Z,77.61
2022-10-18T08:46:24.283Z,78.12
2022-10-18T08:48:25.566Z,77.82
2022-10-18T08:50:27.042Z,78.35
2022-10-18T08:52:28.368Z,78.01
2022-10-18T08:54:29.715Z,78.17
2022-10-18T08:56:30.982Z,78.35
2022-10-18T08:58:32.312Z,78.38
2022-10-18T09:00:34.895Z,78.02
2022-10-18T09:02:36.278Z,78.57
2022-10-18T09:04:37.626Z,78.08
2022-10-18T09:06:38.922Z,78.48
2022-10-18T09:08:40.252Z,78.14
2022-10-18T09:10:41.523Z,78.04
2022-10-18T09:12:43.738Z,78.29
2022-10-18T09:14:45.414Z,78.00
2022-10-18T09:16:46.719Z,77.23
2022-10-18T09:18:48.118Z,75.84
2022-10-18T09:20:49.993Z,75.37
2022-10-18T09:22:51.261Z,75.55
2022-10-18T09:24:52.573Z,74.73
2022-10-18T09:26:53.916Z,75.36
2022-10-18T09:28:55.279Z,74.40
2022-10-18T09:30:58.738Z,74.40
2022-10-18T09:33:00.995Z,73.94
2022-10-18T09:35:02.283Z,73.48
2022-10-18T09:37:03.710Z,73.64
2022-10-18T09:39:05.025Z,72.52
2022-10-18T09:41:06.357Z,72.54
2022-10-18T09:43:07.635Z,73.27
2022-10-18T09:45:08.898Z,71.92
2022-10-18T09:47:13.356Z,72.43
2022-10-18T09:49:17.202Z,72.32
2022-10-18T09:51:22.033Z,72.26
2022-10-18T09:53:23.305Z,72.77
2022-10-18T09:55:24.619Z,74.56
2022-10-18T09:57:25.886Z,74.72
2022-10-18T09:59:27.211Z,74.30
2022-10-18T10:01:28.531Z,73.72
2022-10-18T10:03:29.815Z,73.75
2022-10-18T10:05:31.120Z,74.42
2022-10-18T10:07:34.792Z,74.17
2022-10-18T10:09:36.628Z,73.88
2022-10-18T10:11:37.983Z,74.36
2022-10-18T10:13:39.294Z,74.48
2022-10-18T10:15:42.561Z,74.43
2022-10-18T10:17:44.191Z,74.40
2022-10-18T10:19:45.511Z,74.42
2022-10-18T10:21:46.978Z,74.05
2022-10-18T10:23:48.263Z,73.52
2022-10-18T10:25:49.547Z,74.09
2022-10-18T10:27:50.817Z,74.08
2022-10-18T10:29:53.771Z,73.78
2022-10-18T10:31:55.160Z,73.56
2022-10-18T10:33:57.174Z,73.80
2022-10-18T10:35:58.471Z,73.71
2022-10-18T10:37:59.774Z,73.32
2022-10-18T10:40:17.876Z,73.28
2022-10-18T10:42:20.469Z,73.81
2022-10-18T10:44:21.817Z,73.56
2022-10-18T10:46:23.358Z,74.55
2022-10-18T10:48:24.638Z,74.89
2022-10-18T10:50:26.024Z,74.46
2022-10-18T10:52:28.338Z,74.25
2022-10-18T10:54:30.219Z,73.82
2022-10-18T10:56:31.493Z,73.46
2022-10-18T10:58:32.801Z,73.64
2022-10-18T11:00:34.141Z,73.88
2022-10-18T11:02:35.655Z,73.29
2022-10-18T11:04:38.508Z,73.08
2022-10-18T11:06:39.905Z,72.74
2022-10-18T11:08:41.275Z,72.60
2022-10-18T11:10:42.727Z,72.34
2022-10-18T11:12:44.138Z,72.23
2022-10-18T11:14:45.461Z,72.66
2022-10-18T11:16:46.771Z,72.21
2022-10-18T11:18:48.047Z,72.56
2022-10-18T11:20:49.490Z,72.50
2022-10-18T11:22:50.788Z,72.48
2022-10-18T11:24:52.058Z,72.11
2022-10-18T11:26:53.973Z,72.55
2022-10-18T11:28:55.367Z,72.24
2022-10-18T11:30:58.850Z,73.42
2022-10-18T11:33:00.147Z,74.73
2022-10-18T11:35:01.467Z,74.92
2022-10-18T11:37:26.413Z,75.29
2022-10-18T11:39:24.521Z,75.31
2022-10-18T11:41:26.115Z,75.95
2022-10-18T11:43:34.424Z,75.84
2022-10-18T11:45:48.742Z,75.97
2022-10-18T11:47:53.536Z,75.29
2022-10-18T11:49:57.067Z,76.00
2022-10-18T11:52:07.984Z,75.72
2022-10-18T11:54:10.203Z,75.90
2022-10-18T11:56:11.526Z,76.20
2022-10-18T11:58:12.848Z,76.00
2022-10-18T12:00:14.154Z,74.75
2022-10-18T12:02:15.523Z,72.88
2022-10-18T12:04:17.897Z,73.11
2022-10-18T12:06:19.200Z,73.30
2022-10-18T12:08:20.528Z,73.58
2022-10-18T12:10:31.570Z,74.14
2022-10-18T12:12:43.141Z,75.12
2022-10-18T12:14:44.418Z,75.19
2022-10-18T12:16:51.517Z,75.04
2022-10-18T12:20:59.947Z,75.21
2022-10-18T12:23:01.538Z,75.47
2022-10-18T12:25:04.163Z,75.40
2022-10-18T12:27:05.431Z,75.30
2022-10-18T12:29:06.812Z,75.45
2022-10-18T12:31:08.124Z,75.47
2022-10-18T12:33:27.167Z,75.55
2022-10-18T12:35:30.294Z,76.41
2022-10-18T12:37:31.913Z,76.15
2022-10-18T12:39:43.779Z,75.27
2022-10-18T12:41:51.882Z,74.89
2022-10-18T12:43:53.239Z,75.01
2022-10-18T12:45:54.887Z,73.81
2022-10-18T12:47:56.212Z,73.40
2022-10-18T12:49:57.527Z,74.28
2022-10-18T12:52:01.743Z,73.49
2022-10-18T12:54:03.102Z,73.45
2022-10-18T12:56:04.405Z,73.73
2022-10-18T12:58:05.812Z,73.99
2022-10-18T13:00:07.111Z,73.68
2022-10-18T13:02:09.322Z,73.79
2022-10-18T13:04:10.599Z,73.62
2022-10-18T13:06:11.946Z,73.39
2022-10-18T13:08:13.230Z,73.40
2022-10-18T13:10:14.992Z,73.16
2022-10-18T13:12:16.345Z,73.69
2022-10-18T13:14:17.711Z,72.51
2022-10-18T13:16:19.017Z,73.37
2022-10-18T13:18:20.329Z,73.51
2022-10-18T13:20:27.095Z,73.94
2022-10-18T13:22:29.167Z,74.25
2022-10-18T13:24:30.442Z,74.66
2022-10-18T13:26:32.040Z,74.77
2022-10-18T13:28:33.385Z,74.69
2022-10-18T13:30:34.753Z,74.44
2022-10-18T13:32:36.343Z,74.62
2022-10-18T13:34:39.103Z,74.73
2022-10-18T13:36:40.515Z,75.04
2022-10-18T13:38:41.877Z,75.56
2022-10-18T13:40:46.118Z,75.58
2022-10-18T13:42:47.395Z,76.13
2022-10-18T13:44:48.732Z,76.12
2022-10-18T13:46:50.041Z,75.99
2022-10-18T13:48:51.368Z,76.46
2022-10-18T13:50:52.662Z,76.01
2022-10-18T13:52:53.970Z,76.61
2022-10-18T13:54:55.264Z,76.67
2022-10-18T13:56:56.618Z,76.61
2022-10-18T13:59:13.142Z,76.60
2022-10-18T14:01:15.298Z,76.36
2022-10-18T14:03:37.649Z,76.63
2022-10-18T14:05:37.988Z,76.66
2022-10-18T14:07:39.279Z,76.90
2022-10-18T14:09:44.591Z,76.57
2022-10-18T14:11:46.476Z,76.95
2022-10-18T14:13:47.806Z,76.65
2022-10-18T14:15:49.178Z,76.94
2022-10-18T14:17:50.505Z,76.87
2022-10-18T14:19:51.862Z,76.88
2022-10-18T14:21:53.132Z,77.44
2022-10-18T14:23:54.412Z,77.33
2022-10-18T14:25:55.735Z,77.79
2022-10-18T14:27:57.023Z,77.46
2022-10-18T14:29:58.310Z,77.60
2022-10-18T14:31:59.627Z,77.39
2022-10-18T14:34:00.969Z,77.57
2022-10-18T14:36:02.250Z,77.73
2022-10-18T14:38:03.578Z,77.48
2022-10-18T14:40:04.878Z,77.63
2022-10-18T14:42:09.179Z,77.34
2022-10-18T14:44:13.410Z,77.82
2022-10-18T14:46:14.692Z,76.95
2022-10-18T14:48:16.026Z,74.85
2022-10-18T14:50:17.330Z,75.38
2022-10-18T14:52:18.768Z,73.37
2022-10-18T14:54:20.091Z,72.42
2022-10-18T14:56:21.430Z,74.13
2022-10-18T14:58:23.280Z,74.61
2022-10-18T15:00:25.589Z,74.04
2022-10-18T15:02:26.897Z,74.14
2022-10-18T15:04:33.230Z,72.99
2022-10-18T15:06:34.589Z,72.91
2022-10-18T15:08:35.953Z,74.01
2022-10-18T15:10:37.597Z,74.40
2022-10-18T15:13:04.360Z,74.63
2022-10-18T15:15:00.298Z,74.79
2022-10-18T15:17:02.461Z,74.07
2022-10-18T15:19:03.808Z,74.29
2022-10-18T15:23:06.386Z,74.38
2022-10-18T15:25:07.757Z,74.14
2022-10-18T15:27:09.316Z,73.91
2022-10-18T15:29:10.635Z,74.44
2022-10-18T15:31:13.057Z,74.53
2022-10-18T15:33:14.356Z,73.79
2022-10-18T15:35:15.770Z,74.24
2022-10-18T15:37:17.211Z,74.13
2022-10-18T15:39:18.526Z,74.31
2022-10-18T15:41:19.836Z,74.25
2022-10-18T15:43:21.145Z,74.22
2022-10-18T15:45:22.415Z,74.58
2022-10-18T15:47:24.943Z,74.29
2022-10-18T15:49:26.418Z,73.84
2022-10-18T15:51:27.717Z,74.29
2022-10-18T15:53:30.391Z,74.29
2022-10-18T15:55:31.740Z,73.84
2022-10-18T15:57:33.410Z,74.19
2022-10-18T15:59:35.011Z,73.97
2022-10-18T16:01:36.497Z,74.10
2022-10-18T16:03:38.656Z,73.94
2022-10-18T16:05:39.959Z,74.01
2022-10-18T16:07:41.233Z,74.29
2022-10-18T16:09:42.725Z,74.20
2022-10-18T16:11:44.032Z,73.46
2022-10-18T16:13:45.350Z,73.82
2022-10-18T16:15:46.685Z,74.00
2022-10-18T16:17:47.952Z,74.20
2022-10-18T16:19:49.222Z,74.37
2022-10-18T16:21:50.565Z,74.25
2022-10-18T16:23:51.913Z,74.36
2022-10-18T16:25:53.234Z,74.38
2022-10-18T16:27:54.514Z,73.45
2022-10-18T16:29:55.778Z,72.38
2022-10-18T16:31:58.293Z,72.82
2022-10-18T16:33:59.798Z,72.95
2022-10-18T16:36:01.153Z,72.84
2022-10-18T16:38:02.470Z,72.45
2022-10-18T16:40:03.750Z,72.49
2022-10-18T16:42:05.077Z,72.78
2022-10-18T16:44:06.383Z,72.67
2022-10-18T16:46:07.979Z,72.77
2022-10-18T16:48:09.306Z,73.35
2022-10-18T16:50:13.506Z,74.46
2022-10-18T16:52:14.826Z,73.62
2022-10-18T16:54:16.127Z,73.55
2022-10-18T16:56:20.332Z,73.02
2022-10-18T17:00:25.181Z,73.30
2022-10-18T17:02:26.481Z,72.85
2022-10-18T17:04:29.158Z,72.44
2022-10-18T17:06:33.117Z,72.57
2022-10-18T17:08:34.472Z,73.31
2022-10-18T17:10:35.888Z,73.13
2022-10-18T17:12:37.222Z,73.95
2022-10-18T17:14:38.516Z,74.74
2022-10-18T17:16:44.545Z,75.03
2022-10-18T17:18:48.383Z,75.50
2022-10-18T17:20:49.662Z,75.54
2022-10-18T17:22:53.639Z,75.13
2022-10-18T17:24:54.959Z,75.54
2022-10-18T17:26:56.219Z,75.79
2022-10-18T17:28:57.641Z,75.72
2022-10-18T17:30:59.066Z,75.66
2022-10-18T17:33:00.386Z,75.54
2022-10-18T17:35:01.690Z,75.61
2022-10-18T17:37:02.961Z,75.74
2022-10-18T17:39:04.245Z,75.31
2022-10-18T17:41:05.523Z,75.69
2022-10-18T17:43:09.278Z,75.63
2022-10-18T17:45:10.583Z,73.54
2022-10-18T17:47:11.863Z,73.34
2022-10-18T17:49:14.114Z,72.71
2022-10-18T17:51:15.386Z,73.70
2022-10-18T17:53:18.420Z,73.98
2022-10-18T17:55:19.740Z,73.98
2022-10-18T17:57:21.032Z,74.30
2022-10-18T17:59:22.354Z,74.28
2022-10-18T18:01:23.634Z,73.87
2022-10-18T18:03:24.980Z,73.21
2022-10-18T18:05:28.112Z,72.62
2022-10-18T18:07:29.386Z,72.81
2022-10-18T18:09:30.847Z,72.41
2022-10-18T18:11:32.181Z,72.55
2022-10-18T18:13:33.518Z,73.16
2022-10-18T18:15:37.843Z,73.40
2022-10-18T18:17:56.842Z,73.17
2022-10-18T18:19:58.842Z,74.04
2022-10-18T18:22:03.672Z,74.40
2022-10-18T18:24:05.068Z,73.79
2022-10-18T18:26:06.344Z,73.89
2022-10-18T18:28:07.847Z,73.79
2022-10-18T18:30:09.244Z,73.73
2022-10-18T18:32:10.664Z,73.80
2022-10-18T18:34:12.021Z,73.98
2022-10-18T18:36:13.352Z,73.76
2022-10-18T18:38:14.672Z,74.03
2022-10-18T18:40:18.715Z,74.10
2022-10-18T18:42:20.106Z,74.29
2022-10-18T18:44:21.643Z,73.43
2022-10-18T18:46:22.928Z,73.72
2022-10-18T18:48:24.223Z,73.94
2022-10-18T18:50:28.553Z,73.73
2022-10-18T18:52:29.995Z,74.18
2022-10-18T18:54:31.707Z,74.10
2022-10-18T18:56:33.201Z,73.19
2022-10-18T18:58:34.473Z,73.36
2022-10-18T19:00:39.162Z,73.45
2022-10-18T19:02:43.336Z,73.41
2022-10-18T19:04:44.663Z,73.22
2022-10-18T19:06:49.158Z,72.58
2022-10-18T19:08:50.538Z,72.82
2022-10-18T19:10:51.812Z,72.79
2022-10-18T19:12:53.105Z,72.82
2022-10-18T19:14:54.459Z,73.63
2022-10-18T19:16:57.450Z,74.12
2022-10-18T19:18:58.865Z,74.00
2022-10-18T19:21:00.281Z,74.05
2022-10-18T19:23:01.552Z,73.76
2022-10-18T19:25:02.896Z,73.99
2022-10-18T19:27:04.178Z,73.91
2022-10-18T19:29:05.585Z,73.18
2022-10-18T19:31:07.633Z,72.75
2022-10-18T19:33:09.767Z,73.58
2022-10-18T19:35:11.075Z,73.01
2022-10-18T19:37:12.362Z,73.21
2022-10-18T19:39:13.723Z,73.03
2022-10-18T19:41:15.044Z,73.29
2022-10-18T19:43:22.261Z,73.42
2022-10-18T19:45:23.565Z,73.28
2022-10-18T19:47:24.842Z,73.54
2022-10-18T19:49:26.221Z,73.79
2022-10-18T19:51:28.524Z,73.52
2022-10-18T19:53:29.991Z,73.44
2022-10-18T19:55:31.271Z,73.57
2022-10-18T19:57:32.550Z,72.94
2022-10-18T19:59:35.925Z,72.12
2022-10-18T20:01:37.472Z,72.30
2022-10-18T20:03:38.833Z,71.61
2022-10-18T20:05:42.931Z,71.88
2022-10-18T20:07:45.505Z,71.44
2022-10-18T20:09:48.014Z,72.01
2022-10-18T20:11:49.327Z,72.79
2022-10-18T20:13:50.635Z,73.29
2022-10-18T20:15:51.966Z,73.62
2022-10-18T20:17:53.302Z,73.09
2022-10-18T20:19:54.757Z,73.23
2022-10-18T20:21:57.774Z,72.95
2022-10-18T20:23:59.051Z,73.28
2022-10-18T20:26:00.359Z,73.29
2022-10-18T20:28:01.674Z,73.55
2022-10-18T20:30:05.324Z,74.33
2022-10-18T20:32:10.134Z,75.93
2022-10-18T20:34:11.486Z,74.12
2022-10-18T20:36:12.783Z,73.88
2022-10-18T20:38:14.120Z,74.06
2022-10-18T20:40:15.406Z,73.96
2022-10-18T20:42:16.724Z,73.67
2022-10-18T20:44:19.601Z,73.20
2022-10-18T20:46:20.962Z,74.15
2022-10-18T20:48:22.238Z,73.64
2022-10-18T20:50:23.534Z,73.44
2022-10-18T20:52:24.866Z,73.84
2022-10-18T20:54:26.231Z,73.60
2022-10-18T20:56:27.611Z,73.61
2022-10-18T20:58:28.903Z,73.60
2022-10-18T21:00:30.167Z,73.93
2022-10-18T21:02:31.425Z,73.72
2022-10-18T21:04:32.695Z,74.26
2022-10-18T21:06:34.350Z,75.15
2022-10-18T21:08:35.624Z,73.99
2022-10-18T21:10:36.920Z,74.02
2022-10-18T21:12:38.496Z,74.52
2022-10-18T21:14:39.926Z,73.91
2022-10-18T21:16:41.246Z,73.18
2022-10-18T21:18:42.553Z,70.41
2022-10-18T21:20:43.824Z,71.55
2022-10-18T21:22:45.151Z,71.32
2022-10-18T21:24:46.594Z,72.05
2022-10-18T21:26:48.251Z,72.51
2022-10-18T21:28:50.924Z,72.98
2022-10-18T21:30:52.249Z,74.11
2022-10-18T21:32:53.651Z,73.27
2022-10-18T21:34:55.150Z,73.68
2022-10-18T21:36:56.480Z,73.31
2022-10-18T21:38:57.752Z,74.13
2022-10-18T21:40:59.111Z,73.35
2022-10-18T21:43:00.403Z,72.25
2022-10-18T21:45:01.700Z,73.24
2022-10-18T21:47:02.959Z,73.20
2022-10-18T21:49:04.294Z,73.45
2022-10-18T21:51:05.569Z,73.64
2022-10-18T21:53:06.882Z,74.57
2022-10-18T21:55:08.373Z,74.12
2022-10-18T21:57:09.687Z,73.40
2022-10-18T21:59:11.001Z,73.29
2022-10-18T22:01:12.511Z,73.01
2022-10-18T22:03:13.831Z,72.46
2022-10-18T22:05:15.179Z,73.68
2022-10-18T22:07:16.455Z,74.00
2022-10-18T22:09:17.785Z,73.73
2022-10-18T22:11:19.067Z,73.92
2022-10-18T22:13:20.347Z,73.92
2022-10-18T22:15:21.700Z,73.83
2022-10-18T22:17:23.660Z,73.94
2022-10-18T22:19:24.969Z,73.90
2022-10-18T22:21:26.239Z,73.88
2022-10-18T22:23:27.510Z,73.70
2022-10-18T22:25:28.787Z,73.49
2022-10-18T22:27:30.306Z,72.56
2022-10-18T22:29:31.783Z,73.51
2022-10-18T22:31:33.058Z,74.43
2022-10-18T22:33:34.390Z,74.14
2022-10-18T22:35:35.654Z,74.48
2022-10-18T22:37:37.027Z,74.34
2022-10-18T22:39:38.387Z,73.87
2022-10-18T22:41:39.686Z,74.71
2022-10-18T22:43:41.027Z,74.02
2022-10-18T22:45:42.519Z,73.96
2022-10-18T22:47:43.796Z,73.54
2022-10-18T22:49:45.146Z,74.08
2022-10-18T22:51:46.443Z,73.69
2022-10-18T22:53:47.709Z,74.31
2022-10-18T22:55:49.012Z,73.17
2022-10-18T22:57:50.318Z,73.74
2022-10-18T22:59:51.611Z,73.51
2022-10-18T23:01:52.932Z,73.72
2022-10-18T23:03:54.411Z,73.65
2022-10-18T23:05:55.742Z,73.69
2022-10-18T23:07:57.073Z,74.19
2022-10-18T23:09:58.347Z,74.94
2022-10-18T23:11:59.623Z,67.08
2022-10-18T23:14:00.950Z,66.58
2022-10-18T23:16:04.497Z,71.11
2022-10-18T23:18:06.200Z,71.17
2022-10-18T23:20:07.485Z,71.89
2022-10-18T23:22:08.974Z,71.77
2022-10-18T23:24:10.295Z,72.56
2022-10-18T23:26:11.625Z,72.91
2022-10-18T23:28:12.943Z,73.38
2022-10-18T23:30:14.285Z,73.10
2022-10-18T23:32:15.618Z,73.97
2022-10-18T23:34:16.911Z,74.01
2022-10-18T23:36:18.398Z,74.27
2022-10-18T23:38:19.677Z,74.29
2022-10-18T23:40:20.957Z,74.77
2022-10-18T23:42:22.263Z,74.69
2022-10-18T23:44:23.586Z,75.03
2022-10-18T23:46:24.910Z,75.08
2022-10-18T23:48:26.354Z,75.39
2022-10-18T23:50:27.631Z,75.65
2022-10-18T23:52:28.912Z,75.68
2022-10-18T23:54:30.263Z,75.70
2022-10-18T23:56:31.537Z,75.62
2022-10-18T23:58:32.817Z,75.58
